Time;durP1;ratioP1;P1;durP2;ratioP2;P2;SDS_P1;SDS_P2;PMS_P1;PMS_P2;Temp;Humidity;BMP_temperature;BMP_pressure;BME280_temperature;BME280_humidity;BME280_pressure;Samples;Min_cycle;Max_cycle;Signal;HPM_P1;HPM_P2
2024/03/20 00:00:47;;;;;;;6.53;4.77;;;;;;;7.65;100.00;98443.50;4975934;28;20605;-76
2024/03/20 00:03:15;;;;;;;6.33;5.20;;;;;;;7.60;100.00;98450.78;4975906;28;20219;-76
2024/03/20 00:05:41;;;;;;;6.57;5.33;;;;;;;7.57;100.00;98450.94;4975803;28;20687;-76
2024/03/20 00:08:10;;;;;;;7.17;5.53;;;;;;;7.58;100.00;98444.72;4975979;28;20259;-76
2024/03/20 00:10:36;;;;;;;8.70;6.17;;;;;;;7.58;100.00;98447.38;4975464;28;20236;-77
2024/03/20 00:13:03;;;;;;;5.97;4.97;;;;;;;7.61;100.00;98452.47;4975653;28;20220;-76
2024/03/20 00:15:30;;;;;;;7.23;5.33;;;;;;;7.59;100.00;98451.72;4975734;28;20657;-77
2024/03/20 00:17:56;;;;;;;6.97;5.50;;;;;;;7.57;100.00;98445.66;4975489;28;20271;-77
2024/03/20 00:20:24;;;;;;;5.97;5.37;;;;;;;7.56;100.00;98443.97;4975393;28;20231;-76
2024/03/20 00:22:51;;;;;;;7.30;5.40;;;;;;;7.55;100.00;98439.66;4975609;28;20690;-76
2024/03/20 00:25:19;;;;;;;6.40;4.93;;;;;;;7.53;100.00;98449.41;4975574;28;20212;-77
2024/03/20 00:27:45;;;;;;;7.17;5.27;;;;;;;7.50;100.00;98444.28;4975645;28;20209;-76
2024/03/20 00:30:12;;;;;;;6.47;5.13;;;;;;;7.49;100.00;98443.47;4975762;28;20256;-77
2024/03/20 00:32:38;;;;;;;7.97;5.60;;;;;;;7.48;100.00;98440.91;4975836;28;20216;-77
2024/03/20 00:35:07;;;;;;;6.60;5.13;;;;;;;7.45;100.00;98436.66;4975992;28;20209;-77
2024/03/20 00:37:34;;;;;;;7.17;5.10;;;;;;;7.44;100.00;98434.09;4975637;28;20251;-77
2024/03/20 00:40:00;;;;;;;5.60;4.87;;;;;;;7.41;100.00;98434.25;4975349;28;20216;-76
2024/03/20 00:42:27;;;;;;;6.73;5.30;;;;;;;7.35;100.00;98434.59;4974229;28;20609;-76
2024/03/20 00:44:54;;;;;;;7.47;5.17;;;;;;;7.28;100.00;98428.78;4975295;28;20554;-76
2024/03/20 00:47:21;;;;;;;8.57;5.57;;;;;;;7.23;100.00;98429.94;4975429;28;20208;-76
2024/03/20 00:49:47;;;;;;;7.40;5.43;;;;;;;7.23;100.00;98424.69;4975023;28;20217;-76
2024/03/20 00:52:14;;;;;;;6.30;5.63;;;;;;;7.20;100.00;98426.63;4974672;28;20244;-76
2024/03/20 00:54:40;;;;;;;6.20;5.57;;;;;;;7.22;100.00;98415.13;4975022;28;20208;-76
2024/03/20 00:57:07;;;;;;;8.37;5.60;;;;;;;7.22;100.00;98418.56;4975036;28;20218;-76
2024/03/20 00:59:35;;;;;;;7.93;5.50;;;;;;;7.21;100.00;98410.75;4975033;28;20678;-76
2024/03/20 01:02:01;;;;;;;7.57;5.33;;;;;;;7.17;100.00;98417.13;4974636;28;20281;-76
2024/03/20 01:04:28;;;;;;;6.27;5.50;;;;;;;7.22;100.00;98416.88;4974978;28;20281;-76
2024/03/20 01:06:54;;;;;;;7.50;5.27;;;;;;;7.22;100.00;98409.84;4974836;28;20697;-77
2024/03/20 01:09:21;;;;;;;7.77;5.83;;;;;;;7.22;100.00;98409.84;4974799;28;20208;-76
2024/03/20 01:11:48;;;;;;;9.77;5.53;;;;;;;7.16;100.00;98411.94;4974286;28;20699;-76
2024/03/20 01:14:15;;;;;;;7.67;5.90;;;;;;;7.14;100.00;98408.53;4974624;28;20527;-76
2024/03/20 01:16:42;;;;;;;8.97;5.50;;;;;;;7.09;100.00;98413.19;4974759;28;20285;-76
2024/03/20 01:19:09;;;;;;;6.87;5.23;;;;;;;7.03;100.00;98393.31;4974778;28;20214;-77
2024/03/20 01:21:35;;;;;;;9.03;5.77;;;;;;;7.00;100.00;98403.13;4974208;28;20228;-76
2024/03/20 01:24:02;;;;;;;7.77;5.83;;;;;;;6.96;100.00;98407.69;4974533;28;20209;-78
2024/03/20 01:26:28;;;;;;;6.90;5.53;;;;;;;6.94;100.00;98406.91;4974429;28;20674;-77
2024/03/20 01:28:55;;;;;;;7.57;5.23;;;;;;;6.92;100.00;98398.28;4974523;28;20219;-76
2024/03/20 01:31:21;;;;;;;8.40;5.27;;;;;;;6.92;100.00;98398.28;4973982;28;20242;-76
2024/03/20 01:33:49;;;;;;;7.40;5.60;;;;;;;6.95;100.00;98395.47;4974598;28;20212;-76
2024/03/20 01:36:16;;;;;;;7.27;5.47;;;;;;;7.00;100.00;98401.34;4974377;28;20208;-76
2024/03/20 01:38:42;;;;;;;9.47;5.97;;;;;;;7.05;100.00;98388.84;4974393;28;20211;-76
2024/03/20 01:41:09;;;;;;;7.10;5.70;;;;;;;7.07;100.00;98386.97;4973974;28;20642;-76
2024/03/20 01:43:37;;;;;;;7.93;6.33;;;;;;;7.07;100.00;98392.22;4974433;28;20714;-76
2024/03/20 01:46:25;;;;;;;6.33;5.33;;;;;;;7.03;100.00;98393.31;4974038;28;20735;-76
2024/03/20 01:48:55;;;;;;;10.33;5.67;;;;;;;6.99;100.00;98386.53;4973949;28;20215;-76
2024/03/20 01:51:22;;;;;;;7.83;5.70;;;;;;;6.91;100.00;98391.28;4973802;28;20334;-76
2024/03/20 01:53:49;;;;;;;7.07;6.13;;;;;;;6.91;100.00;98391.28;4974231;28;20209;-76
2024/03/20 01:56:16;;;;;;;7.27;5.57;;;;;;;6.88;100.00;98386.22;4974085;28;20572;-76
2024/03/20 01:58:42;;;;;;;8.17;5.10;;;;;;;6.86;100.00;98388.06;4973648;28;20216;-76
2024/03/20 02:01:09;;;;;;;7.87;5.13;;;;;;;6.79;100.00;98391.91;4973580;28;20251;-77
2024/03/20 02:03:36;;;;;;;8.53;5.23;;;;;;;6.76;100.00;98388.59;4973683;28;20674;-77
2024/03/20 02:06:04;;;;;;;8.60;5.00;;;;;;;6.79;100.00;98391.06;4974250;28;20211;-77
2024/03/20 02:08:31;;;;;;;8.80;5.27;;;;;;;6.74;100.00;98393.94;4973811;28;20224;-77
2024/03/20 02:10:57;;;;;;;8.37;5.40;;;;;;;6.70;100.00;98391.50;4973249;28;20235;-77
2024/03/20 02:13:24;;;;;;;8.40;5.73;;;;;;;6.65;100.00;98383.88;4973719;28;20216;-76
2024/03/20 02:15:50;;;;;;;9.07;5.60;;;;;;;6.66;100.00;98385.56;4973451;28;20207;-76
2024/03/20 02:18:17;;;;;;;6.37;5.00;;;;;;;6.68;100.00;98396.88;4973521;28;20223;-76
2024/03/20 02:20:44;;;;;;;11.27;5.97;;;;;;;6.65;100.00;98383.88;4973839;28;20240;-76
2024/03/20 02:23:11;;;;;;;8.07;5.63;;;;;;;6.64;100.00;98381.31;4973462;28;20212;-76
2024/03/20 02:25:38;;;;;;;10.77;6.10;;;;;;;6.59;100.00;98392.06;4973265;28;20215;-76
2024/03/20 02:28:05;;;;;;;10.10;6.30;;;;;;;6.55;100.00;98385.28;4973287;28;20230;-77
2024/03/20 02:30:31;;;;;;;11.77;6.87;;;;;;;6.53;100.00;98387.09;4973467;28;20227;-76
2024/03/20 02:32:58;;;;;;;10.00;7.30;;;;;;;6.52;100.00;98374.03;4973614;28;20215;-77
2024/03/20 02:35:24;;;;;;;10.60;6.80;;;;;;;6.52;100.00;98381.91;4973309;28;20581;-76
2024/03/20 02:37:51;;;;;;;10.47;7.10;;;;;;;6.51;100.00;98388.97;4973304;28;20208;-77
2024/03/20 02:40:19;;;;;;;9.33;7.13;;;;;;;6.49;100.00;98382.94;4973153;28;20218;-76
2024/03/20 02:42:45;;;;;;;11.17;7.00;;;;;;;6.50;100.00;98378.53;4972929;28;20699;-76
2024/03/20 02:45:12;;;;;;;10.70;6.67;;;;;;;6.48;100.00;98381.22;4972986;28;20215;-76
2024/03/20 02:47:38;;;;;;;8.43;6.17;;;;;;;6.48;100.00;98386.47;4973237;28;20226;-77
2024/03/20 02:50:06;;;;;;;12.30;7.50;;;;;;;6.43;100.00;98385.88;4973068;28;20580;-77
2024/03/20 02:52:32;;;;;;;10.87;7.07;;;;;;;6.47;100.00;98389.19;4972780;28;20231;-76
2024/03/20 02:54:59;;;;;;;11.43;7.20;;;;;;;6.45;100.00;98386.63;4972914;28;20222;-76
2024/03/20 02:57:26;;;;;;;12.33;7.37;;;;;;;6.43;100.00;98380.63;4972735;28;20631;-76
2024/03/20 02:59:53;;;;;;;11.70;6.67;;;;;;;6.37;100.00;98383.53;4972578;28;20216;-76
2024/03/20 03:02:19;;;;;;;12.10;7.43;;;;;;;6.32;100.00;98385.53;4972604;28;20571;-77
2024/03/20 03:04:46;;;;;;;9.93;7.30;;;;;;;6.30;100.00;98387.38;4972719;28;20212;-76
2024/03/20 03:07:12;;;;;;;12.13;8.03;;;;;;;6.30;100.00;98376.88;4972673;28;20211;-77
2024/03/20 03:09:39;;;;;;;11.73;7.80;;;;;;;6.29;100.00;98387.47;4972741;28;20207;-76
2024/03/20 03:12:06;;;;;;;12.23;8.40;;;;;;;6.26;100.00;98384.97;4972347;28;20240;-76
2024/03/20 03:14:34;;;;;;;11.00;7.70;;;;;;;6.24;100.00;98377.16;4972508;28;20207;-77
2024/03/20 03:17:00;;;;;;;13.47;8.37;;;;;;;6.29;100.00;98384.84;4972813;28;20226;-76
2024/03/20 03:19:27;;;;;;;13.00;8.43;;;;;;;6.35;100.00;98380.13;4972708;28;20208;-76
2024/03/20 03:21:54;;;;;;;13.23;9.47;;;;;;;6.41;100.00;98384.25;4972312;28;20321;-76
2024/03/20 03:24:20;;;;;;;14.57;9.47;;;;;;;6.50;100.00;98384.66;4972548;28;20218;-77
2024/03/20 03:26:48;;;;;;;13.47;8.37;;;;;;;6.46;100.00;98388.34;4972368;28;20215;-77
2024/03/20 03:29:15;;;;;;;13.90;8.30;;;;;;;6.46;100.00;98383.09;4972567;28;20208;-77
2024/03/20 03:31:43;;;;;;;11.90;8.33;;;;;;;6.45;100.00;98391.88;4972132;28;20235;-76
2024/03/20 03:34:09;;;;;;;11.40;7.43;;;;;;;6.41;100.00;98389.50;4972575;28;20206;-77
2024/03/20 03:36:36;;;;;;;13.33;8.17;;;;;;;6.33;100.00;98387.22;4972502;28;20207;-77
2024/03/20 03:39:02;;;;;;;11.33;7.93;;;;;;;6.27;100.00;98398.03;4972483;28;20231;-77
2024/03/20 03:41:29;;;;;;;14.07;8.47;;;;;;;6.24;100.00;98398.16;4971790;28;20303;-76
2024/03/20 03:43:55;;;;;;;12.50;8.07;;;;;;;6.22;100.00;98397.38;4972572;28;20220;-76
2024/03/20 03:46:22;;;;;;;9.93;7.20;;;;;;;6.21;100.00;98398.31;4972155;28;20212;-77
2024/03/20 03:48:50;;;;;;;12.30;8.57;;;;;;;6.20;100.00;98401.00;4972288;28;20219;-77
2024/03/20 03:51:16;;;;;;;12.03;8.37;;;;;;;6.22;100.00;98399.19;4971780;28;20606;-77
2024/03/20 03:53:43;;;;;;;13.43;8.90;;;;;;;6.27;100.00;98403.28;4972171;28;20293;-77
2024/03/20 03:56:09;;;;;;;17.03;9.17;;;;;;;6.38;100.00;98401.00;4971992;28;20207;-76
2024/03/20 03:58:36;;;;;;;12.60;8.97;;;;;;;6.38;100.00;98405.38;4972073;28;20214;-76
2024/03/20 04:01:03;;;;;;;16.10;9.17;;;;;;;6.39;100.00;98402.69;4971941;28;20238;-76
2024/03/20 04:03:29;;;;;;;15.03;9.50;;;;;;;6.42;100.00;98407.78;4972131;28;20212;-76
2024/03/20 04:05:59;;;;;;;13.67;8.97;;;;;;;6.39;100.00;98404.44;4972372;28;20216;-76
2024/03/20 04:08:26;;;;;;;12.60;8.83;;;;;;;6.36;100.00;98402.81;4971932;28;20682;-76
2024/03/20 04:10:52;;;;;;;13.93;8.93;;;;;;;6.33;100.00;98397.72;4971957;28;20235;-76
2024/03/20 04:13:19;;;;;;;12.13;8.50;;;;;;;6.30;100.00;98403.13;4972178;28;20648;-76
2024/03/20 04:15:45;;;;;;;12.90;8.60;;;;;;;6.26;100.00;98396.34;4972016;28;20308;-76
2024/03/20 04:18:12;;;;;;;14.10;8.90;;;;;;;6.23;100.00;98401.72;4975049;28;20214;-78
2024/03/20 04:20:39;;;;;;;12.60;8.77;;;;;;;6.19;100.00;98400.19;4975787;28;20237;-76
2024/03/20 04:23:08;;;;;;;13.17;8.50;;;;;;;6.18;100.00;98403.69;4975530;28;20223;-75
2024/03/20 04:25:34;;;;;;;11.37;8.23;;;;;;;6.25;100.00;98399.03;4975817;28;20211;-75
2024/03/20 04:28:01;;;;;;;16.00;9.20;;;;;;;6.27;100.00;98399.78;4975698;28;20233;-75
2024/03/20 04:30:27;;;;;;;13.80;8.90;;;;;;;6.21;100.00;98403.56;4975596;28;20242;-75
2024/03/20 04:32:54;;;;;;;12.73;8.47;;;;;;;6.21;100.00;98398.31;4975371;28;20227;-76
2024/03/20 04:35:20;;;;;;;14.33;8.50;;;;;;;6.22;100.00;98401.81;4975770;28;20222;-78
2024/03/20 04:37:47;;;;;;;13.57;9.03;;;;;;;6.17;100.00;98402.00;4975384;28;20214;-77
2024/03/20 04:40:15;;;;;;;14.33;8.53;;;;;;;6.20;100.00;98396.63;4975506;28;20563;-77
2024/03/20 04:42:41;;;;;;;12.47;8.77;;;;;;;6.14;100.00;98398.66;4975027;28;20214;-77
2024/03/20 04:45:11;;;;;;;10.80;7.87;;;;;;;6.06;100.00;98395.56;4975455;28;20214;-77
2024/03/20 04:47:38;;;;;;;14.37;8.63;;;;;;;6.00;100.00;98401.97;4975614;28;20233;-77
2024/03/20 04:50:07;;;;;;;12.00;8.50;;;;;;;5.97;100.00;98403.84;4975142;28;20603;-77
2024/03/20 04:52:33;;;;;;;15.13;8.67;;;;;;;5.95;100.00;98396.09;4974894;28;20231;-77
2024/03/20 04:55:00;;;;;;;16.00;9.27;;;;;;;5.89;100.00;98396.38;4975283;28;20218;-77
2024/03/20 04:57:28;;;;;;;12.80;9.13;;;;;;;5.89;100.00;98404.22;4975213;28;20211;-77
2024/03/20 04:59:54;;;;;;;14.27;8.97;;;;;;;5.87;100.00;98408.69;4975102;28;20216;-77
2024/03/20 05:02:21;;;;;;;13.43;9.03;;;;;;;5.85;100.00;98400.03;4974670;28;20711;-77
2024/03/20 05:04:48;;;;;;;16.30;9.53;;;;;;;5.83;100.00;98407.13;4974980;28;20205;-77
2024/03/20 05:07:14;;;;;;;14.43;9.47;;;;;;;5.79;100.00;98408.16;4975166;28;20269;-77
2024/03/20 05:09:41;;;;;;;12.30;8.57;;;;;;;5.79;100.00;98410.78;4975105;28;20226;-77
2024/03/20 05:12:07;;;;;;;11.90;8.47;;;;;;;5.78;100.00;98410.84;4974443;28;20332;-78
2024/03/20 05:14:36;;;;;;;11.40;8.27;;;;;;;5.73;100.00;98405.81;4974979;28;20789;-77
2024/03/20 05:17:03;;;;;;;15.43;9.43;;;;;;;5.72;100.00;98409.38;4974533;28;20219;-77
2024/03/20 05:19:30;;;;;;;14.87;8.50;;;;;;;5.70;100.00;98395.47;4974633;28;20633;-77
2024/03/20 05:21:56;;;;;;;14.53;9.07;;;;;;;5.74;100.00;98404.06;4974534;28;20228;-77
2024/03/20 05:24:22;;;;;;;15.00;10.73;;;;;;;5.71;100.00;98399.81;4974430;28;20700;-77
2024/03/20 05:26:49;;;;;;;11.60;8.47;;;;;;;5.72;100.00;98401.50;4974539;28;20210;-77
2024/03/20 05:29:14;;;;;;;13.20;9.17;;;;;;;5.75;100.00;98400.50;4974298;28;20215;-77
2024/03/20 05:31:44;;;;;;;14.93;9.50;;;;;;;5.80;100.00;98395.94;4974132;28;20230;-77
2024/03/20 05:34:10;;;;;;;16.03;9.60;;;;;;;5.80;100.00;98407.25;4974942;28;20299;-77
2024/03/20 05:36:37;;;;;;;14.43;9.40;;;;;;;5.87;100.00;98408.69;4974451;28;20726;-77
2024/03/20 05:39:03;;;;;;;11.57;8.47;;;;;;;5.86;100.00;98406.16;4974412;28;20217;-77
2024/03/20 05:41:30;;;;;;;16.90;10.10;;;;;;;6.00;100.00;98406.34;4974072;28;20319;-76
2024/03/20 05:43:56;;;;;;;15.70;9.37;;;;;;;5.93;100.00;98411.00;4974099;28;20233;-77
2024/03/20 05:46:23;;;;;;;13.00;8.73;;;;;;;5.89;100.00;98409.47;4974068;28;20206;-77
2024/03/20 05:48:50;;;;;;;13.43;9.20;;;;;;;5.82;100.00;98415.94;4974034;28;20455;-77
2024/03/20 05:51:17;;;;;;;14.03;8.67;;;;;;;5.81;100.00;98422.06;4973888;28;20237;-77
2024/03/20 05:53:42;;;;;;;12.87;8.57;;;;;;;5.81;100.00;98414.22;4974092;28;20334;-77
2024/03/20 05:56:09;;;;;;;15.40;9.70;;;;;;;5.92;100.00;98422.44;4974016;28;20564;-77
2024/03/20 05:58:35;;;;;;;12.93;8.67;;;;;;;5.92;100.00;98427.69;4973940;28;20211;-77
2024/03/20 06:01:01;;;;;;;15.33;8.90;;;;;;;5.92;100.00;98422.44;4973668;28;20236;-77
2024/03/20 06:03:27;;;;;;;12.17;9.00;;;;;;;5.84;100.00;98428.94;4973734;28;20203;-77
2024/03/20 06:05:54;;;;;;;12.97;8.37;;;;;;;5.85;100.00;98431.50;4973953;28;20708;-77
2024/03/20 06:08:21;;;;;;;12.63;8.30;;;;;;;5.82;100.00;98425.56;4973903;28;20701;-77
2024/03/20 06:10:48;;;;;;;12.97;8.67;;;;;;;5.85;100.00;98436.75;4973586;28;20650;-77
2024/03/20 06:13:15;;;;;;;14.07;9.20;;;;;;;5.91;100.00;98436.47;4973649;28;20234;-77
2024/03/20 06:15:42;;;;;;;12.90;8.40;;;;;;;5.97;100.00;98435.34;4973724;28;20213;-77
2024/03/20 06:18:08;;;;;;;12.80;8.73;;;;;;;6.08;100.00;98433.94;4973647;28;20215;-77
2024/03/20 06:20:35;;;;;;;13.93;9.53;;;;;;;6.13;100.00;98438.97;4973616;28;20274;-77
2024/03/20 06:23:02;;;;;;;11.97;8.50;;;;;;;6.16;100.00;98437.03;4972167;28;20213;-77
2024/03/20 06:25:29;;;;;;;11.33;8.57;;;;;;;6.19;100.00;98436.06;4974379;28;20226;-77
2024/03/20 06:27:54;;;;;;;13.80;9.93;;;;;;;6.28;100.00;98441.72;4974140;28;20210;-77
2024/03/20 06:30:23;;;;;;;13.50;9.50;;;;;;;6.39;100.00;98444.69;4973106;28;20308;-77
2024/03/20 06:32:49;;;;;;;13.90;9.73;;;;;;;6.52;100.00;98445.81;4973350;28;20252;-77
2024/03/20 06:35:16;;;;;;;15.00;9.47;;;;;;;6.75;100.00;98442.06;4973451;28;20217;-77
2024/03/20 06:37:42;;;;;;;14.00;10.23;;;;;;;6.89;100.00;98437.81;4973126;28;20218;-77
2024/03/20 06:40:12;;;;;;;17.20;9.30;;;;;;;6.99;100.00;98443.47;4972042;28;20212;-76
2024/03/20 06:42:38;;;;;;;14.03;9.80;;;;;;;7.07;100.00;98446.56;4973177;28;20586;-77
2024/03/20 06:45:06;;;;;;;14.47;9.43;;;;;;;7.18;100.00;98447.72;4973006;28;20211;-77
2024/03/20 06:47:31;;;;;;;14.03;10.17;;;;;;;7.22;100.00;98448.44;4973035;28;20278;-77
2024/03/20 06:49:58;;;;;;;12.60;8.60;;;;;;;7.39;100.00;98459.78;4973302;28;20215;-77
2024/03/20 06:52:24;;;;;;;12.40;8.60;;;;;;;7.44;100.00;98460.38;4972754;28;20243;-77
2024/03/20 06:54:51;;;;;;;14.73;9.20;;;;;;;7.50;100.00;98465.34;4973250;28;20212;-77
2024/03/20 06:57:18;;;;;;;14.13;9.10;;;;;;;7.50;100.00;98462.69;4973022;28;20591;-77
2024/03/20 06:59:45;;;;;;;11.33;7.97;;;;;;;7.45;100.00;98460.31;4973140;28;20258;-77
2024/03/20 07:02:10;;;;;;;11.00;8.43;;;;;;;7.42;100.00;98463.09;4973067;28;20597;-77
2024/03/20 07:04:37;;;;;;;11.50;7.87;;;;;;;7.42;100.00;98462.25;4972839;28;20216;-77
2024/03/20 07:07:03;;;;;;;10.80;8.10;;;;;;;7.43;100.00;98469.22;4973172;28;20275;-77
2024/03/20 07:09:30;;;;;;;12.57;8.17;;;;;;;7.43;100.00;98474.47;4973075;28;20249;-77
2024/03/20 07:11:55;;;;;;;10.80;7.90;;;;;;;7.47;100.00;98470.75;4972904;28;20710;-77
2024/03/20 07:14:25;;;;;;;11.83;7.90;;;;;;;7.51;100.00;98472.28;4975751;28;20226;-77
2024/03/20 07:16:51;;;;;;;10.27;7.37;;;;;;;7.56;100.00;98475.53;4973230;28;20216;-77
2024/03/20 07:19:17;;;;;;;12.30;8.10;;;;;;;7.63;100.00;98479.53;4973156;28;20219;-77
2024/03/20 07:21:43;;;;;;;10.50;7.97;;;;;;;7.75;100.00;98477.13;4972575;28;20239;-77
2024/03/20 07:24:10;;;;;;;10.50;7.77;;;;;;;7.85;100.00;98486.22;4973114;28;20230;-77
2024/03/20 07:26:37;;;;;;;9.87;7.33;;;;;;;7.90;100.00;98481.56;4973277;28;20579;-78
2024/03/20 07:29:05;;;;;;;11.63;7.67;;;;;;;7.97;100.00;98487.38;4972929;28;20220;-78
2024/03/20 07:31:32;;;;;;;12.60;8.23;;;;;;;8.03;100.00;98481.78;4972120;28;20723;-77
2024/03/20 07:33:59;;;;;;;13.47;8.37;;;;;;;8.09;100.00;98481.47;4972388;28;20634;-77
2024/03/20 07:36:24;;;;;;;13.07;8.50;;;;;;;8.25;100.00;98477.94;4973143;28;20215;-78
2024/03/20 07:38:51;;;;;;;13.10;8.33;;;;;;;8.43;100.00;98487.47;4972492;28;20215;-77
2024/03/20 07:41:17;;;;;;;11.53;8.80;;;;;;;8.61;100.00;98486.44;4972699;28;20303;-77
2024/03/20 07:43:43;;;;;;;11.83;8.73;;;;;;;8.87;100.00;98492.91;4973009;28;20213;-77
2024/03/20 07:46:10;;;;;;;11.60;8.30;;;;;;;8.97;100.00;98491.44;4972620;28;20220;-77
2024/03/20 07:48:39;;;;;;;9.90;7.80;;;;;;;9.06;100.00;98493.56;4972588;28;20241;-77
2024/03/20 07:51:05;;;;;;;11.83;7.80;;;;;;;9.21;100.00;98492.66;4972203;28;20238;-77
2024/03/20 07:53:31;;;;;;;9.83;7.57;;;;;;;9.37;100.00;98486.38;4976370;28;20275;-77
2024/03/20 07:55:57;;;;;;;13.00;7.03;;;;;;;9.50;100.00;98494.44;4976463;28;20211;-77
2024/03/20 07:58:23;;;;;;;10.23;7.00;;;;;;;9.69;100.00;98492.41;4976613;28;20705;-77
2024/03/20 08:00:53;;;;;;;9.77;7.63;;;;;;;9.80;100.00;98493.44;4976176;28;20244;-77
2024/03/20 08:03:21;;;;;;;9.73;6.70;;;;;;;9.93;100.00;98493.56;4976355;28;20250;-77
2024/03/20 08:05:48;;;;;;;9.73;6.67;;;;;;;10.12;100.00;98491.53;4976612;28;20253;-79
2024/03/20 08:08:14;;;;;;;9.77;6.73;;;;;;;10.23;100.00;98486.44;4976461;28;20214;-77
2024/03/20 08:10:40;;;;;;;10.17;7.17;;;;;;;10.24;100.00;98493.41;4976666;28;20236;-78
2024/03/20 08:13:09;;;;;;;9.10;6.93;;;;;;;10.30;100.00;98490.38;4976571;28;20232;-77
2024/03/20 08:15:34;;;;;;;10.93;7.23;;;;;;;10.33;100.00;98492.84;4977449;28;20224;-78
2024/03/20 08:18:01;;;;;;;9.63;7.10;;;;;;;10.42;100.00;98497.56;4975253;28;20584;-77
2024/03/20 08:20:26;;;;;;;10.60;7.10;;;;;;;10.46;100.00;98494.59;4974561;28;20231;-77
2024/03/20 08:22:55;;;;;;;8.97;6.97;;;;;;;10.51;100.00;98492.53;4974520;28;20217;-77
2024/03/20 08:25:20;;;;;;;10.70;7.53;;;;;;;10.67;100.00;98487.13;4977519;28;20221;-78
2024/03/20 08:27:47;;;;;;;7.47;6.50;;;;;;;10.83;100.00;98495.78;4980467;28;20213;-79
2024/03/20 08:30:13;;;;;;;9.77;6.50;;;;;;;10.99;100.00;98493.81;4980212;28;20522;-78
2024/03/20 08:32:40;;;;;;;8.10;6.97;;;;;;;11.15;100.00;98490.09;4979531;28;20234;-79
2024/03/20 08:35:10;;;;;;;8.47;6.87;;;;;;;11.32;100.00;98489.81;4979329;28;20245;-78
2024/03/20 08:37:37;;;;;;;6.97;5.70;;;;;;;11.50;100.00;98480.63;4979893;28;20265;-79
2024/03/20 08:40:06;;;;;;;8.17;6.00;;;;;;;11.71;100.00;98473.94;4977200;28;20215;-78
2024/03/20 08:42:32;;;;;;;9.13;6.20;;;;;;;11.92;100.00;98469.78;4978204;28;20269;-78
2024/03/20 08:45:02;;;;;;;8.13;5.87;;;;;;;12.06;100.00;98466.19;4978934;28;20257;-78
2024/03/20 08:47:28;;;;;;;8.53;6.27;;;;;;;12.18;100.00;98468.00;4978888;28;20705;-79
2024/03/20 08:49:54;;;;;;;10.87;5.90;;;;;;;12.33;100.00;98466.91;4978607;28;20225;-79
2024/03/20 08:52:21;;;;;;;6.90;6.03;;;;;;;12.52;100.00;98456.66;4979301;28;20230;-79
2024/03/20 08:54:49;;;;;;;8.23;5.67;;;;;;;12.63;100.00;98448.78;4978829;28;20603;-79
2024/03/20 08:57:17;;;;;;;9.97;6.30;;;;;;;12.71;100.00;98446.47;4979114;28;20253;-79
2024/03/20 08:59:43;;;;;;;7.93;6.03;;;;;;;12.80;100.00;98451.06;4978731;28;20210;-79
2024/03/20 09:02:10;;;;;;;6.27;5.50;;;;;;;12.96;100.00;98451.69;4978722;28;20236;-79
2024/03/20 09:04:35;;;;;;;6.67;5.67;;;;;;;13.03;100.00;98451.09;4977875;28;20214;-79
2024/03/20 09:07:02;;;;;;;9.20;5.30;;;;;;;13.14;100.00;98451.16;4978841;28;20221;-79
2024/03/20 09:09:28;;;;;;;6.97;5.47;;;;;;;13.22;100.00;98438.19;4974615;28;20210;-78
2024/03/20 09:11:55;;;;;;;6.07;4.83;;;;;;;13.31;100.00;98439.28;4975167;28;20269;-78
2024/03/20 09:14:22;;;;;;;6.50;5.33;;;;;;;13.44;100.00;98426.78;4975143;28;20227;-77
2024/03/20 09:16:50;;;;;;;6.33;5.17;;;;;;;13.44;100.00;98421.47;4974775;28;20269;-77
2024/03/20 09:19:16;;;;;;;6.00;4.53;;;;;;;13.36;100.00;98418.53;4974684;28;20222;-77
2024/03/20 09:21:43;;;;;;;6.07;5.10;;;;;;;13.54;100.00;98417.13;4974292;28;20234;-77
2024/03/20 09:24:14;;;;;;;6.90;4.70;;;;;;;13.60;97.45;98404.25;4974832;28;20225;-77
2024/03/20 09:26:40;;;;;;;6.07;4.90;;;;;;;13.62;98.17;98415.59;4974873;28;20215;-78
2024/03/20 09:29:06;;;;;;;6.73;5.03;;;;;;;13.78;97.29;98413.47;4975798;28;20217;-78
2024/03/20 09:31:34;;;;;;;5.57;4.53;;;;;;;13.92;95.24;98407.03;4975149;28;20775;-78
2024/03/20 09:34:00;;;;;;;5.47;4.30;;;;;;;14.01;97.08;98415.19;4975235;28;20231;-77
2024/03/20 09:36:29;;;;;;;8.20;5.27;;;;;;;14.07;96.88;98411.19;4976036;28;20207;-78
2024/03/20 09:38:55;;;;;;;5.37;4.63;;;;;;;14.10;94.19;98397.63;4977373;28;20217;-78
2024/03/20 09:41:23;;;;;;;6.43;4.73;;;;;;;14.32;90.74;98385.22;4978037;28;20329;-78
2024/03/20 09:43:52;;;;;;;5.47;4.30;;;;;;;14.35;89.35;98376.16;4978920;28;20599;-78
2024/03/20 09:46:20;;;;;;;5.43;4.53;;;;;;;14.52;93.13;98391.56;4978170;28;20315;-78
2024/03/20 09:48:47;;;;;;;6.27;4.50;;;;;;;14.64;89.12;98374.63;4978518;28;20213;-78
2024/03/20 09:51:18;;;;;;;4.37;3.90;;;;;;;14.67;87.14;98363.75;4978091;28;20244;-78
2024/03/20 09:53:47;;;;;;;5.40;3.87;;;;;;;14.72;83.88;98351.75;4978075;28;20328;-78
2024/03/20 09:56:15;;;;;;;4.73;4.23;;;;;;;14.81;84.22;98355.47;4978849;28;20218;-78
2024/03/20 09:58:41;;;;;;;6.37;4.70;;;;;;;14.98;85.03;98365.56;4978451;28;20216;-79
2024/03/20 10:01:12;;;;;;;6.30;4.20;;;;;;;15.07;84.88;98364.78;4977776;28;20286;-78
2024/03/20 10:03:38;;;;;;;5.57;3.83;;;;;;;15.09;81.96;98349.53;4978567;28;20227;-78
2024/03/20 10:06:06;;;;;;;4.97;4.10;;;;;;;15.21;81.22;98352.00;4977265;28;20216;-78
2024/03/20 10:08:34;;;;;;;4.83;4.33;;;;;;;15.34;83.31;98368.66;4977053;28;20297;-77
2024/03/20 10:11:01;;;;;;;4.63;3.90;;;;;;;15.54;79.28;98341.19;4976601;28;20244;-76
2024/03/20 10:13:26;;;;;;;3.80;3.27;;;;;;;15.54;78.86;98340.34;4977163;28;20320;-77
2024/03/20 10:16:05;;;;;;;4.90;4.07;;;;;;;15.64;80.16;98346.59;4977206;28;20244;-77
2024/03/20 10:18:31;;;;;;;5.67;4.07;;;;;;;15.74;77.62;98339.47;4977218;28;20220;-76
2024/03/20 10:21:00;;;;;;;4.60;3.93;;;;;;;15.72;76.41;98339.63;4976548;28;20245;-76
2024/03/20 10:23:27;;;;;;;4.93;3.57;;;;;;;15.70;75.49;98330.06;4976655;28;20277;-77
2024/03/20 10:25:57;;;;;;;5.43;3.77;;;;;;;15.70;72.54;98311.41;4977249;28;20219;-77
2024/03/20 10:28:27;;;;;;;3.70;2.80;;;;;;;15.66;70.68;98309.97;4976963;28;20233;-78
2024/03/20 10:30:54;;;;;;;3.87;3.33;;;;;;;15.70;73.70;98327.41;4976779;28;20249;-77
2024/03/20 10:33:19;;;;;;;4.30;3.27;;;;;;;15.74;73.40;98327.00;4977232;28;20234;-77
2024/03/20 10:35:54;;;;;;;3.57;2.97;;;;;;;15.83;72.45;98314.69;4977107;28;20715;-77
2024/03/20 10:38:20;;;;;;;5.03;2.83;;;;;;;15.85;71.45;98312.72;4976484;28;20221;-77
2024/03/20 10:40:50;;;;;;;5.70;3.20;;;;;;;15.94;70.64;98301.28;4975865;28;20242;-77
2024/03/20 10:43:19;;;;;;;4.40;3.20;;;;;;;15.95;70.93;98308.28;4977650;28;20194;-81
2024/03/20 10:45:47;;;;;;;4.30;3.10;;;;;;;16.13;73.07;98314.66;4979932;28;20211;-79
2024/03/20 10:48:16;;;;;;;3.33;2.60;;;;;;;16.31;71.71;98316.53;4978406;28;20309;-80
2024/03/20 10:50:44;;;;;;;2.83;2.33;;;;;;;16.33;67.96;98278.06;4978119;28;20714;-79
2024/03/20 10:53:09;;;;;;;2.93;2.57;;;;;;;16.29;66.78;98282.00;4979546;28;20234;-80
2024/03/20 10:55:37;;;;;;;3.53;2.40;;;;;;;16.33;67.09;98277.22;4979961;28;20217;-80
2024/03/20 10:58:05;;;;;;;4.20;2.80;;;;;;;16.46;65.24;98262.66;4983585;28;20207;-80
2024/03/20 11:00:32;;;;;;;3.20;2.73;;;;;;;16.62;70.35;98312.81;4979548;28;20234;-79
2024/03/20 11:02:58;;;;;;;3.03;2.60;;;;;;;16.69;67.92;98289.91;4979425;28;20301;-80
2024/03/20 11:05:38;;;;;;;3.50;2.67;;;;;;;16.74;67.24;98283.19;4979959;28;20234;-80
2024/03/20 11:08:07;;;;;;;4.07;3.00;;;;;;;16.91;66.55;98278.97;4979399;28;20237;-80
2024/03/20 11:10:34;;;;;;;2.97;2.40;;;;;;;17.00;66.63;98286.97;4978743;28;20235;-80
2024/03/20 11:13:00;;;;;;;3.73;2.53;;;;;;;17.05;65.23;98268.69;4978523;28;20237;-79
2024/03/20 11:15:30;;;;;;;3.40;2.67;;;;;;;17.20;67.96;98291.28;4978403;28;20215;-80
2024/03/20 11:17:58;;;;;;;2.70;2.40;;;;;;;17.25;63.93;98259.66;4978380;28;20214;-78
2024/03/20 11:20:45;;;;;;;2.40;2.10;;;;;;;17.40;65.66;98270.75;4978376;28;20605;-80
2024/03/20 11:23:22;;;;;;;3.80;2.70;;;;;;;17.61;63.41;98260.72;4978274;28;20670;-77
2024/03/20 11:25:49;;;;;;;2.80;2.17;;;;;;;17.69;62.19;98245.59;4976809;28;20615;-77
2024/03/20 11:28:15;;;;;;;3.57;2.50;;;;;;;17.65;61.29;98233.53;4976876;28;20237;-77